Toluca, North Carolina
Current Conditions -  °F | °C
As of 5:55 AM on Sunday 23 Nov 2014 (Local Time) from KEHO Reporting Station
Light Rain Light Rain  
Wind Chill: 41°   Ceiling: 3200
Heat Index: 41°   Visibility: 7mi
Dew Point: 35°   Wind: 0mph
Humidity: 77%   Direction: NA
Pressure: 30.23"   Gusts: NA
Location:  35.4647°N, 81.5349°W
Report Text: KEHO 231055Z AUTO 00000KT 7SM -RA SCT010 BKN032 OVC095 05/01 A3023 RMK AO2 P0001 T00520014
Loading
Personal Weather Stations






























Interactive Weather Map New forecast layout! Learn more

10-Day Weather Forecast

Advertisements
Track Severe Weather on mobile